Krotz Springs, LA (70750)

1:44 PM CDT on September 21, 2014 (GMT -0500)
Pecaniere | Change Station
CLOSE
Current Station
Personal Weather Station
Location: Arnaudville, LA
Elevation: 30 ft
Nearby Weather Stations

Elev 30 ft 30.43 °N, 91.92 °W | Updated 12 minutes ago

Clear
Clear
91.2 °F
Feels Like 99 °F
N
3.7
Wind Variable Wind from WNW

Today
High -- | Low -- °F
--% Chance of Precip.
Yesterday
High -- | Low -- °F
Precip. -- in
6:54 AM 7:04 PM
Waning Crescent, 6% visible
Pressure 30.02 in
Visibility 10.0 miles
Clouds Scattered Clouds 4400 ft
Scattered Clouds 5000 ft
Heat Index 99 °F
Dew Point 72 °F
Humidity 54%
Rainfall 0.00 in
Snow Depth Not available.
UV 8 out of 12
Pollen 10.50 out of 12
Air Quality Not available.
Flu Activity Not available.
METAR KOPL 211835Z AUTO 05004KT 10SM SCT044 SCT050 30/21 A3002 RMK AO2 T03020205

More Conditions Fewer Conditions

Pressure 30.02 in
Visibility 10.0 miles
Clouds Scattered Clouds 4400 ft
Scattered Clouds 5000 ft
Heat Index 99 °F
Dew Point 72 °F
Humidity 54%
Rainfall 0.00 in
Snow Depth Not available.
UV 8 out of 12
Pollen 10.50 out of 12
Air Quality Not available.
Flu Activity Not available.
METAR KOPL 211835Z AUTO 05004KT 10SM SCT044 SCT050 30/21 A3002 RMK AO2 T03020205

More Conditions Fewer Conditions

10-Day Weather Forecast

Almanac

Astronomy

Sep. 21, 2014 Rise Set
Actual Time 6:54 AM CDT 7:04 PM CDT
Civil Twilight 6:30 AM CDT 7:28 PM CDT
Nautical Twilight 6:02 AM CDT 7:56 PM CDT
Astronomical Twilight 5:34 AM CDT 8:25 PM CDT
Moon 4:36 AM CDT 5:35 PM CDT
Length of Visible Light 12h 58m
Length of Day
12h 10m
Tomorrow will be 1m 50s shorter.
Waning Crescent, 6% of the Moon is Illuminated
Today
Waning Crescent
Sep 24
New
Oct 1
First Quarter
Oct 8
Full
Oct 15
Last Quarter

Today's Extremes

State Highs State Lows

Community

WunderPhotos

Upload Photos

1,755,211 photos uploaded!

WunderBlogs® & News

Nearby

Snow Depth

Station Depth Elevation
No new snow has been reported.

Earthquake Activity

City Distance Mag. Time & Date
No recent earthquake activity has been reported nearby.
Minimum magnitude displayed is 2.5.

Coastal Water Temperatures

Place Temperature
No Stations Reporting

Nearby Weather Stations